Eminence, Missouri
Current Conditions -  °F | °C
As of 9:53 AM on Thursday 30 Oct 2014 (Local Time) from KUNO Reporting Station
Clear Clear  
Wind Chill: 51°   Ceiling: Unl
Heat Index: 51°   Visibility: 10mi
Dew Point: 33°   Wind: 10mph
Humidity: 50%   Direction: 170°S
Pressure: 30.15"   Gusts: NA
Location:  37.15°N, 91.36°W
Report Text: KUNO 301453Z AUTO 17009KT 10SM CLR 11/01 A3015 RMK AO2 SLP212 T01060006 51002
Loading
Personal Weather Stations






























Interactive Weather Map
Tropical Storm Tracking
New forecast layout! Learn more

10-Day Weather Forecast

Advertisements
Track Severe Weather on mobile